createdAt,value
2018-07-17T00:01:31.795Z,5.50
2018-07-17T00:03:59.432Z,8.50
2018-07-17T00:06:27.065Z,4.77
2018-07-17T00:08:54.761Z,5.17
2018-07-17T00:11:22.462Z,5.57
2018-07-17T00:13:50.216Z,5.40
2018-07-17T00:16:17.958Z,7.30
2018-07-17T00:18:45.678Z,6.57
2018-07-17T00:21:13.403Z,5.37
2018-07-17T00:23:41.070Z,6.80
2018-07-17T00:26:08.750Z,8.73
2018-07-17T00:28:36.395Z,5.50
2018-07-17T00:31:04.085Z,6.27
2018-07-17T00:33:31.751Z,5.23
2018-07-17T00:35:59.444Z,5.93
2018-07-17T00:38:27.131Z,5.83
2018-07-17T00:40:54.823Z,5.43
2018-07-17T00:43:22.494Z,5.03
2018-07-17T00:45:50.226Z,4.77
2018-07-17T00:48:17.886Z,5.30
2018-07-17T00:50:45.558Z,5.63
2018-07-17T00:53:13.218Z,5.30
2018-07-17T00:55:40.904Z,5.23
2018-07-17T00:58:08.633Z,5.67
2018-07-17T01:00:41.984Z,5.67
2018-07-17T01:03:15.499Z,4.77
2018-07-17T01:05:48.953Z,5.73
2018-07-17T01:08:22.329Z,5.57
2018-07-17T01:10:56.352Z,7.90
2018-07-17T01:13:27.327Z,5.33
2018-07-17T01:15:55.536Z,5.33
2018-07-17T01:18:23.225Z,5.23
2018-07-17T01:20:50.939Z,5.40
2018-07-17T01:23:18.627Z,5.70
2018-07-17T01:25:46.300Z,7.47
2018-07-17T01:28:13.957Z,7.50
2018-07-17T01:30:41.620Z,4.50
2018-07-17T01:33:09.263Z,4.47
2018-07-17T01:35:36.948Z,4.53
2018-07-17T01:38:04.847Z,4.23
2018-07-17T01:40:32.569Z,5.00
2018-07-17T01:43:00.299Z,5.67
2018-07-17T01:45:28.009Z,4.93
2018-07-17T01:47:55.648Z,5.27
2018-07-17T01:50:23.346Z,5.57
2018-07-17T01:52:50.995Z,6.07
2018-07-17T01:55:18.681Z,5.87
2018-07-17T01:57:46.336Z,9.00
2018-07-17T02:00:13.992Z,6.30
2018-07-17T02:02:41.655Z,5.67
2018-07-17T02:05:09.354Z,5.53
2018-07-17T02:07:37.091Z,6.47
2018-07-17T02:10:04.811Z,6.00
2018-07-17T02:12:32.469Z,5.33
2018-07-17T02:15:00.139Z,6.23
2018-07-17T02:17:27.829Z,5.47
2018-07-17T02:19:55.545Z,5.87
2018-07-17T02:22:23.259Z,6.90
2018-07-17T02:24:50.911Z,5.70
2018-07-17T02:27:18.584Z,6.80
2018-07-17T02:29:46.506Z,6.03
2018-07-17T02:32:14.167Z,5.63
2018-07-17T02:34:41.868Z,6.70
2018-07-17T02:37:09.594Z,5.80
2018-07-17T02:39:37.278Z,5.43
2018-07-17T02:42:05.477Z,6.90
2018-07-17T02:44:33.131Z,5.70
2018-07-17T02:47:00.820Z,5.40
2018-07-17T02:49:28.508Z,5.33
2018-07-17T02:51:56.167Z,5.17
2018-07-17T02:54:23.933Z,5.37
2018-07-17T02:56:51.595Z,5.53
2018-07-17T02:59:19.367Z,5.30
2018-07-17T03:01:47.100Z,5.27
2018-07-17T03:04:14.798Z,6.00
2018-07-17T03:06:42.483Z,6.03
2018-07-17T03:09:10.139Z,5.33
2018-07-17T03:11:37.805Z,5.17
2018-07-17T03:14:05.499Z,5.10
2018-07-17T03:16:33.197Z,5.50
2018-07-17T03:19:00.875Z,5.63
2018-07-17T03:21:28.551Z,5.63
2018-07-17T03:23:56.257Z,5.63
2018-07-17T03:26:23.964Z,5.73
2018-07-17T03:28:51.617Z,5.40
2018-07-17T03:31:19.288Z,5.10
2018-07-17T03:33:46.958Z,5.50
2018-07-17T03:36:14.594Z,6.30
2018-07-17T03:38:42.303Z,7.67
2018-07-17T03:41:09.995Z,8.47
2018-07-17T03:43:37.634Z,8.20
2018-07-17T03:46:05.418Z,8.30
2018-07-17T03:48:33.085Z,9.00
2018-07-17T03:51:00.729Z,7.93
2018-07-17T03:53:28.407Z,8.60
2018-07-17T03:55:56.096Z,9.03
2018-07-17T03:58:23.754Z,8.77
2018-07-17T04:00:51.468Z,9.60
2018-07-17T04:03:19.259Z,9.37
2018-07-17T04:05:46.911Z,9.73
2018-07-17T04:08:14.622Z,9.47
2018-07-17T04:10:42.314Z,9.37
2018-07-17T04:13:09.979Z,9.53
2018-07-17T04:15:37.651Z,8.57
2018-07-17T04:18:05.414Z,9.70
2018-07-17T04:20:33.134Z,9.73
2018-07-17T04:23:00.817Z,9.57
2018-07-17T04:25:28.471Z,9.50
2018-07-17T04:27:56.166Z,9.43
2018-07-17T04:30:23.857Z,10.13
2018-07-17T04:32:51.616Z,9.43
2018-07-17T04:35:19.366Z,9.00
2018-07-17T04:37:47.057Z,8.90
2018-07-17T04:40:14.705Z,9.30
2018-07-17T04:42:42.384Z,9.13
2018-07-17T04:45:10.093Z,9.20
2018-07-17T04:47:37.778Z,9.00
2018-07-17T04:50:05.488Z,9.63
2018-07-17T04:52:33.194Z,9.13
2018-07-17T04:55:00.870Z,8.93
2018-07-17T04:57:28.538Z,9.50
2018-07-17T04:59:56.229Z,9.30
2018-07-17T05:02:24.031Z,9.10
2018-07-17T05:04:51.768Z,8.70
2018-07-17T05:07:19.462Z,9.53
2018-07-17T05:09:47.110Z,9.60
2018-07-17T05:12:14.793Z,9.37
2018-07-17T05:14:42.462Z,9.93
2018-07-17T05:17:10.246Z,10.27
2018-07-17T05:19:38.139Z,10.07
2018-07-17T05:22:05.853Z,9.97
2018-07-17T05:24:33.497Z,10.23
2018-07-17T05:27:01.182Z,9.93
2018-07-17T05:29:29.044Z,8.93
2018-07-17T05:31:56.811Z,9.77
2018-07-17T05:34:24.514Z,9.63
2018-07-17T05:36:52.214Z,10.43
2018-07-17T05:39:19.879Z,9.73
2018-07-17T05:41:47.562Z,10.00
2018-07-17T05:44:15.251Z,10.43
2018-07-17T05:46:42.923Z,10.90
2018-07-17T05:49:10.634Z,11.00
2018-07-17T05:51:38.316Z,12.67
2018-07-17T05:54:05.992Z,11.87
2018-07-17T05:56:33.675Z,11.53
2018-07-17T05:59:01.309Z,11.93
2018-07-17T06:01:28.991Z,11.57
2018-07-17T06:03:56.686Z,17.83
2018-07-17T06:06:24.355Z,14.87
2018-07-17T06:08:52.071Z,12.43
2018-07-17T06:11:19.701Z,18.23
2018-07-17T06:13:47.365Z,12.70
2018-07-17T06:16:15.025Z,13.43
2018-07-17T06:18:42.721Z,13.43
2018-07-17T06:21:10.409Z,12.20
2018-07-17T06:23:38.101Z,13.60
2018-07-17T06:26:05.932Z,13.80
2018-07-17T06:28:33.696Z,15.93
2018-07-17T06:31:02.392Z,14.70
2018-07-17T06:33:30.583Z,15.50
2018-07-17T06:35:58.611Z,15.30
2018-07-17T06:38:26.379Z,14.57
2018-07-17T06:40:54.123Z,13.00
2018-07-17T06:43:21.844Z,11.93
2018-07-17T06:45:50.241Z,12.40
2018-07-17T06:48:18.139Z,12.47
2018-07-17T06:50:46.095Z,11.70
2018-07-17T06:53:13.995Z,12.93
2018-07-17T06:55:41.887Z,13.73
2018-07-17T06:58:09.678Z,12.07
2018-07-17T07:00:38.087Z,12.10
2018-07-17T07:03:05.887Z,12.27
2018-07-17T07:05:33.605Z,11.33
2018-07-17T07:08:01.372Z,12.17
2018-07-17T07:10:29.110Z,12.27
2018-07-17T07:12:56.886Z,11.23
2018-07-17T07:15:24.592Z,10.97
2018-07-17T07:17:52.378Z,12.33
2018-07-17T07:20:20.095Z,11.57
2018-07-17T07:22:47.877Z,12.30
2018-07-17T07:25:15.562Z,12.00
2018-07-17T07:27:43.239Z,11.63
2018-07-17T07:30:10.885Z,11.57
2018-07-17T07:32:38.578Z,11.70
2018-07-17T07:35:06.394Z,11.50
2018-07-17T07:37:34.116Z,11.67
2018-07-17T07:40:01.870Z,11.37
2018-07-17T07:42:29.603Z,11.37
2018-07-17T07:44:57.338Z,10.13
2018-07-17T07:47:25.012Z,9.23
2018-07-17T07:49:53.255Z,10.57
2018-07-17T07:52:20.999Z,10.27
2018-07-17T07:54:48.650Z,9.57
2018-07-17T07:57:16.364Z,10.10
2018-07-17T07:59:44.010Z,9.90
2018-07-17T08:02:11.766Z,8.97
2018-07-17T08:04:39.517Z,8.43
2018-07-17T08:07:07.267Z,9.50
2018-07-17T08:09:34.938Z,8.30
2018-07-17T08:12:02.704Z,8.97
2018-07-17T08:14:30.343Z,9.03
2018-07-17T08:16:58.039Z,14.63
2018-07-17T08:19:26.005Z,17.57
2018-07-17T08:21:53.703Z,8.37
2018-07-17T08:24:21.461Z,7.85
2018-07-17T08:26:49.088Z,7.47
2018-07-17T08:29:16.784Z,8.68
2018-07-17T08:31:44.498Z,10.53
2018-07-17T08:34:12.431Z,9.60
2018-07-17T08:36:40.129Z,9.53
2018-07-17T08:39:09.000Z,9.43
2018-07-17T08:41:36.678Z,11.45
2018-07-17T08:44:04.375Z,8.73
2018-07-17T08:46:32.707Z,10.00
2018-07-17T08:49:00.479Z,9.98
2018-07-17T08:51:28.186Z,8.10
2018-07-17T08:53:55.890Z,8.98
2018-07-17T08:56:23.602Z,6.78
2018-07-17T08:58:51.297Z,8.88
2018-07-17T09:01:19.026Z,8.08
2018-07-17T09:03:46.713Z,8.20
2018-07-17T09:06:14.427Z,7.42
2018-07-17T09:08:42.108Z,10.15
2018-07-17T09:11:11.191Z,7.70
2018-07-17T09:13:38.897Z,39.85
2018-07-17T09:16:06.931Z,7.58
2018-07-17T09:18:35.700Z,8.65
2018-07-17T09:21:03.438Z,8.58
2018-07-17T09:23:31.148Z,7.95
2018-07-17T09:25:58.849Z,8.30
2018-07-17T09:28:26.635Z,8.60
2018-07-17T09:30:59.110Z,8.50
2018-07-17T09:33:27.170Z,10.18
2018-07-17T09:35:54.880Z,8.53
2018-07-17T09:38:22.589Z,10.23
2018-07-17T09:40:50.251Z,8.98
2018-07-17T09:43:17.979Z,8.70
2018-07-17T09:45:46.553Z,8.10
2018-07-17T09:48:14.583Z,7.42
2018-07-17T09:50:42.932Z,7.53
2018-07-17T09:53:10.668Z,8.18
2018-07-17T09:55:39.450Z,7.05
2018-07-17T09:58:07.399Z,8.08
2018-07-17T10:00:40.946Z,9.70
2018-07-17T10:03:08.641Z,8.98
2018-07-17T10:05:36.267Z,6.42
2018-07-17T10:08:03.964Z,8.23
2018-07-17T10:10:31.637Z,9.53
2018-07-17T10:12:59.280Z,5.55
2018-07-17T10:15:26.942Z,6.67
2018-07-17T10:17:54.631Z,6.53
2018-07-17T10:20:22.316Z,7.55
2018-07-17T10:22:49.994Z,7.75
2018-07-17T10:25:17.727Z,6.22
2018-07-17T10:27:45.390Z,6.72
2018-07-17T10:30:13.064Z,7.05
2018-07-17T10:32:40.718Z,7.62
2018-07-17T10:35:08.427Z,9.68
2018-07-17T10:37:36.086Z,7.55
2018-07-17T10:40:04.868Z,8.40
2018-07-17T10:42:32.558Z,10.95
2018-07-17T10:45:00.253Z,10.15
2018-07-17T10:47:28.123Z,8.83
2018-07-17T10:49:55.797Z,9.38
2018-07-17T10:52:23.494Z,10.80
2018-07-17T10:54:51.187Z,10.88
2018-07-17T10:57:18.998Z,11.15
2018-07-17T10:59:46.702Z,10.48
2018-07-17T11:02:14.769Z,12.33
2018-07-17T11:04:42.504Z,12.10
2018-07-17T11:07:10.263Z,12.18
2018-07-17T11:09:37.994Z,13.05
2018-07-17T11:12:05.720Z,12.98
2018-07-17T11:14:33.413Z,11.75
2018-07-17T11:17:01.271Z,12.58
2018-07-17T11:19:28.953Z,13.48
2018-07-17T11:21:56.668Z,11.85
2018-07-17T11:24:24.356Z,12.55
2018-07-17T11:26:52.032Z,11.57
2018-07-17T11:29:19.711Z,12.82
2018-07-17T11:31:47.382Z,12.88
2018-07-17T11:34:15.121Z,11.40
2018-07-17T11:36:42.790Z,10.45
2018-07-17T11:39:10.462Z,11.48
2018-07-17T11:41:38.121Z,11.38
2018-07-17T11:44:05.826Z,8.85
2018-07-17T11:46:33.565Z,9.90
2018-07-17T11:49:01.186Z,9.08
2018-07-17T11:51:28.882Z,9.08
2018-07-17T11:53:56.549Z,8.28
2018-07-17T11:56:24.210Z,9.60
2018-07-17T11:58:51.890Z,9.90
2018-07-17T12:01:19.557Z,11.73
2018-07-17T12:03:47.238Z,11.48
2018-07-17T12:06:14.975Z,8.23
2018-07-17T12:08:42.647Z,7.75
2018-07-17T12:11:10.312Z,7.40
2018-07-17T12:13:37.987Z,6.92
2018-07-17T12:16:05.698Z,7.67
2018-07-17T12:18:33.356Z,6.28
2018-07-17T12:21:01.015Z,7.55
2018-07-17T12:23:28.697Z,9.18
2018-07-17T12:25:56.377Z,7.55
2018-07-17T12:28:24.042Z,8.30
2018-07-17T12:30:51.697Z,7.12
2018-07-17T12:33:19.371Z,6.60
2018-07-17T12:35:47.059Z,7.60
2018-07-17T12:38:14.760Z,7.35
2018-07-17T12:40:42.460Z,6.60
2018-07-17T12:43:10.196Z,7.25
2018-07-17T12:45:37.942Z,6.40
2018-07-17T12:48:05.648Z,6.30
2018-07-17T12:50:33.337Z,8.78
2018-07-17T12:53:01.249Z,8.48
2018-07-17T12:55:28.969Z,8.00
2018-07-17T12:57:56.673Z,6.53
2018-07-17T13:00:24.358Z,7.00
2018-07-17T13:02:52.088Z,7.70
2018-07-17T13:05:19.638Z,5.87
2018-07-17T13:07:47.340Z,6.90
2018-07-17T13:10:15.042Z,5.50
2018-07-17T13:12:42.690Z,7.50
2018-07-17T13:15:10.358Z,6.60
2018-07-17T13:17:38.101Z,5.10
2018-07-17T13:20:06.512Z,6.28
2018-07-17T13:22:34.176Z,6.97
2018-07-17T13:25:01.902Z,6.08
2018-07-17T13:27:29.565Z,4.97
2018-07-17T13:29:57.246Z,5.03
2018-07-17T13:32:24.920Z,7.30
2018-07-17T13:34:52.695Z,6.60
2018-07-17T13:37:20.383Z,9.93
2018-07-17T13:39:48.046Z,7.70
2018-07-17T13:42:15.710Z,7.28
2018-07-17T13:44:43.640Z,5.95
2018-07-17T13:47:11.455Z,6.60
2018-07-17T13:49:39.193Z,7.78
2018-07-17T13:52:06.967Z,6.08
2018-07-17T13:54:34.640Z,4.22
2018-07-17T13:57:02.295Z,6.33
2018-07-17T13:59:30.169Z,9.30
2018-07-17T14:01:57.893Z,7.00
2018-07-17T14:04:25.586Z,5.70
2018-07-17T14:06:53.347Z,4.58
2018-07-17T14:09:20.934Z,5.55
2018-07-17T14:11:48.593Z,6.05
2018-07-17T14:14:16.287Z,7.37
2018-07-17T14:16:43.987Z,7.45
2018-07-17T14:19:11.675Z,5.70
2018-07-17T14:21:39.366Z,5.10
2018-07-17T14:24:07.043Z,6.00
2018-07-17T14:26:34.719Z,6.30
2018-07-17T14:29:02.468Z,5.87
2018-07-17T14:31:30.127Z,8.95
2018-07-17T14:33:57.822Z,7.28
2018-07-17T14:36:25.506Z,6.90
2018-07-17T14:38:53.176Z,6.95
2018-07-17T14:41:20.891Z,6.05
2018-07-17T14:43:48.601Z,9.98
2018-07-17T14:46:16.314Z,7.72
2018-07-17T14:48:43.989Z,6.65
2018-07-17T14:51:13.048Z,5.95
2018-07-17T14:53:40.746Z,4.95
2018-07-17T14:56:08.909Z,7.17
2018-07-17T14:58:36.629Z,4.50
2018-07-17T15:01:04.837Z,4.62
2018-07-17T15:03:32.891Z,4.47
2018-07-17T15:06:00.798Z,4.08
2018-07-17T15:08:28.663Z,6.65
2018-07-17T15:10:56.388Z,9.23
2018-07-17T15:13:24.138Z,5.62
2018-07-17T15:15:52.086Z,4.87
2018-07-17T15:18:19.671Z,11.38
2018-07-17T15:20:47.410Z,4.42
2018-07-17T15:23:15.470Z,5.87
2018-07-17T15:25:43.258Z,4.92
2018-07-17T15:28:10.985Z,6.60
2018-07-17T15:30:38.609Z,8.00
2018-07-17T15:33:06.535Z,7.70
2018-07-17T15:35:34.195Z,5.28
2018-07-17T15:38:01.877Z,9.45
2018-07-17T15:40:29.595Z,14.68
2018-07-17T15:42:57.251Z,8.88
2018-07-17T15:45:24.991Z,8.33
2018-07-17T15:47:52.620Z,7.17
2018-07-17T15:50:20.308Z,6.25
2018-07-17T15:52:47.975Z,9.00
2018-07-17T15:55:15.700Z,8.25
2018-07-17T15:57:43.441Z,8.10
2018-07-17T16:00:11.114Z,9.40
2018-07-17T16:02:38.817Z,15.28
2018-07-17T16:05:06.650Z,8.28
2018-07-17T16:07:34.605Z,5.58
2018-07-17T16:10:02.355Z,12.90
2018-07-17T16:12:29.963Z,9.18
2018-07-17T16:14:57.726Z,6.97
2018-07-17T16:17:25.434Z,4.67
2018-07-17T16:19:53.140Z,6.90
2018-07-17T16:22:20.877Z,10.85
2018-07-17T16:24:48.613Z,4.00
2018-07-17T16:27:16.299Z,6.15
2018-07-17T16:29:43.963Z,8.70
2018-07-17T16:32:11.643Z,3.67
2018-07-17T16:34:39.354Z,5.87
2018-07-17T16:37:07.167Z,13.13
2018-07-17T16:39:35.840Z,5.83
2018-07-17T16:42:03.589Z,6.12
2018-07-17T16:44:31.253Z,6.58
2018-07-17T16:46:58.936Z,7.60
2018-07-17T16:49:26.596Z,5.45
2018-07-17T16:51:54.251Z,6.55
2018-07-17T16:54:21.927Z,7.80
2018-07-17T16:56:49.573Z,4.97
2018-07-17T16:59:17.238Z,3.08
2018-07-17T17:01:45.545Z,6.53
2018-07-17T17:04:13.256Z,3.98
2018-07-17T17:06:40.882Z,5.28
2018-07-17T17:09:09.949Z,6.40
2018-07-17T17:11:37.621Z,2.92
2018-07-17T17:14:05.330Z,2.75
2018-07-17T17:16:32.977Z,3.52
2018-07-17T17:19:00.602Z,5.20
2018-07-17T17:21:28.293Z,1.72
2018-07-17T17:23:56.005Z,5.03
2018-07-17T17:26:23.613Z,2.70
2018-07-17T17:28:51.300Z,3.35
2018-07-17T17:31:19.002Z,1.77
2018-07-17T17:33:46.653Z,4.83
2018-07-17T17:36:14.402Z,6.08
2018-07-17T17:38:42.058Z,3.37
2018-07-17T17:41:09.813Z,2.30
2018-07-17T17:43:37.512Z,4.08
2018-07-17T17:46:05.398Z,2.92
2018-07-17T17:48:33.291Z,3.30
2018-07-17T17:51:01.100Z,2.80
2018-07-17T17:53:28.911Z,4.95
2018-07-17T17:55:56.719Z,3.02
2018-07-17T17:58:24.522Z,3.63
2018-07-17T18:00:52.279Z,4.30
2018-07-17T18:03:20.054Z,2.30
2018-07-17T18:05:47.816Z,4.27
2018-07-17T18:08:15.823Z,4.27
2018-07-17T18:10:43.571Z,4.30
2018-07-17T18:13:11.338Z,4.40
2018-07-17T18:15:39.251Z,3.67
2018-07-17T18:18:07.064Z,2.83
2018-07-17T18:20:34.856Z,1.73
2018-07-17T18:23:02.611Z,2.07
2018-07-17T18:25:30.384Z,3.53
2018-07-17T18:27:58.173Z,3.20
2018-07-17T18:30:26.145Z,2.10
2018-07-17T18:32:53.851Z,4.70
2018-07-17T18:35:21.604Z,2.37
2018-07-17T18:37:49.458Z,3.20
2018-07-17T18:40:17.254Z,2.83
2018-07-17T18:42:45.035Z,4.60
2018-07-17T18:45:12.739Z,3.43
2018-07-17T18:47:40.510Z,3.57
2018-07-17T18:50:12.872Z,3.40
2018-07-17T18:52:35.931Z,2.43
2018-07-17T18:55:03.637Z,2.70
2018-07-17T18:57:31.285Z,3.40
2018-07-17T18:59:59.029Z,7.00
2018-07-17T19:02:26.840Z,4.40
2018-07-17T19:04:54.855Z,3.60
2018-07-17T19:07:22.737Z,4.50
2018-07-17T19:09:51.233Z,3.40
2018-07-17T19:12:18.991Z,3.97
2018-07-17T19:14:46.601Z,4.30
2018-07-17T19:17:14.283Z,6.23
2018-07-17T19:19:42.034Z,3.67
2018-07-17T19:22:10.376Z,4.90
2018-07-17T19:24:38.380Z,4.53
2018-07-17T19:27:06.039Z,3.73
2018-07-17T19:29:33.698Z,4.50
2018-07-17T19:32:01.405Z,4.70
2018-07-17T19:34:29.678Z,4.70
2018-07-17T19:36:57.550Z,4.10
2018-07-17T19:39:25.253Z,2.80
2018-07-17T19:41:52.946Z,3.90
2018-07-17T19:44:20.610Z,3.50
2018-07-17T19:46:48.335Z,3.60
2018-07-17T19:49:16.034Z,4.60
2018-07-17T19:51:44.101Z,3.10
2018-07-17T19:54:11.796Z,3.60
2018-07-17T19:56:39.690Z,4.53
2018-07-17T19:59:07.399Z,4.80
2018-07-17T20:01:35.866Z,3.20
2018-07-17T20:04:03.538Z,4.63
2018-07-17T20:06:35.405Z,3.77
2018-07-17T20:09:04.719Z,3.87
2018-07-17T20:11:32.585Z,5.10
2018-07-17T20:14:00.282Z,4.10
2018-07-17T20:16:27.951Z,5.20
2018-07-17T20:18:55.643Z,3.60
2018-07-17T20:21:23.330Z,6.30
2018-07-17T20:23:51.001Z,7.33
2018-07-17T20:26:18.666Z,5.73
2018-07-17T20:28:46.331Z,4.27
2018-07-17T20:31:14.069Z,4.40
2018-07-17T20:33:41.790Z,3.83
2018-07-17T20:36:09.456Z,4.93
2018-07-17T20:38:37.169Z,3.40
2018-07-17T20:41:04.951Z,5.07
2018-07-17T20:43:32.636Z,4.63
2018-07-17T20:46:00.348Z,3.53
2018-07-17T20:48:28.040Z,4.80
2018-07-17T20:50:55.726Z,4.20
2018-07-17T20:53:23.462Z,4.40
2018-07-17T20:55:51.187Z,3.43
2018-07-17T20:58:18.871Z,4.10
2018-07-17T21:00:46.613Z,4.60
2018-07-17T21:03:14.377Z,5.17
2018-07-17T21:05:42.103Z,4.67
2018-07-17T21:08:09.830Z,4.93
2018-07-17T21:10:37.514Z,5.97
2018-07-17T21:13:05.476Z,5.07
2018-07-17T21:15:33.185Z,8.20
2018-07-17T21:18:00.907Z,7.53
2018-07-17T21:20:28.585Z,5.73
2018-07-17T21:22:56.342Z,5.40
2018-07-17T21:25:24.086Z,4.40
2018-07-17T21:27:51.743Z,6.60
2018-07-17T21:30:19.470Z,5.30
2018-07-17T21:32:47.160Z,4.77
2018-07-17T21:35:14.907Z,4.03
2018-07-17T21:37:42.600Z,5.27
2018-07-17T21:40:10.401Z,5.50
2018-07-17T21:42:38.090Z,5.77
2018-07-17T21:45:05.845Z,5.63
2018-07-17T21:47:33.522Z,3.77
2018-07-17T21:50:01.179Z,4.87
2018-07-17T21:52:28.879Z,5.10
2018-07-17T21:54:56.608Z,4.70
2018-07-17T21:57:24.309Z,7.13
2018-07-17T21:59:52.015Z,6.20
2018-07-17T22:02:19.776Z,5.93
2018-07-17T22:04:47.490Z,4.83
2018-07-17T22:07:15.294Z,4.40
2018-07-17T22:09:42.942Z,5.20
2018-07-17T22:12:10.659Z,4.33
2018-07-17T22:14:38.370Z,5.83
2018-07-17T22:17:06.090Z,4.73
2018-07-17T22:19:33.790Z,4.60
2018-07-17T22:22:01.626Z,4.27
2018-07-17T22:24:29.302Z,6.30
2018-07-17T22:26:57.011Z,6.33
2018-07-17T22:29:24.745Z,5.63
2018-07-17T22:31:52.548Z,5.27
2018-07-17T22:34:20.287Z,5.77
2018-07-17T22:36:47.945Z,6.90
2018-07-17T22:39:15.693Z,8.30
2018-07-17T22:41:43.533Z,5.20
2018-07-17T22:44:11.265Z,4.93
2018-07-17T22:46:38.939Z,7.67
2018-07-17T22:49:06.610Z,5.47
2018-07-17T22:51:34.311Z,5.37
2018-07-17T22:54:02.022Z,5.67
2018-07-17T22:56:29.836Z,8.73
2018-07-17T22:58:57.549Z,8.70
2018-07-17T23:01:25.268Z,8.73
2018-07-17T23:03:52.965Z,6.13
2018-07-17T23:06:20.682Z,7.13
2018-07-17T23:08:48.363Z,4.90
2018-07-17T23:11:16.294Z,5.23
2018-07-17T23:13:43.995Z,5.00
2018-07-17T23:16:11.780Z,5.17
2018-07-17T23:18:39.482Z,5.77
2018-07-17T23:21:07.202Z,5.20
2018-07-17T23:23:34.913Z,6.93
2018-07-17T23:26:02.627Z,6.37
2018-07-17T23:28:30.294Z,5.03
2018-07-17T23:30:58.033Z,6.07
2018-07-17T23:33:25.729Z,5.60
2018-07-17T23:35:53.419Z,7.17
2018-07-17T23:38:21.117Z,7.57
2018-07-17T23:40:48.798Z,4.80
2018-07-17T23:43:16.595Z,5.90
2018-07-17T23:45:44.262Z,5.10
2018-07-17T23:48:11.940Z,4.97
2018-07-17T23:50:39.648Z,6.43
2018-07-17T23:53:07.451Z,6.43
2018-07-17T23:55:35.141Z,4.70
2018-07-17T23:58:02.878Z,8.00
